SBI4101 USSS-UUDD
Flight info
| Callsign | SBI4101 |
|---|---|
| Flight time | 1h 54m |
| Altitude | 36000 |
| Route | LUNAG M864 KERUN P164 IDMOR M864 IBROT T535 OKNAN T787 URAGO |
| Aircraft | A310/H-V/N |
Departure
| Time | 2026-05-05 17:20 |
|---|---|
| Airport | Koltsovo Airport (USSS) |
Arrival
| Time | 2026-05-05 19:14 |
|---|---|
| Airport | Domodedovo International Airport (UUDD) |
| Time | Latitude | Longitude | Altitude | Speed | Heading |
|---|---|---|---|---|---|
| 2026-05-05 16:40 | 56.74932 | 60.80136 | 765 ft | 0 kts | 359° |
| 2026-05-05 17:00 | 56.74925 | 60.80137 | 765 ft | 3 kts | 359° |
| 2026-05-05 17:00 | 56.74906 | 60.80137 | 765 ft | 3 kts | 359° |
| 2026-05-05 17:00 | 56.74887 | 60.80137 | 765 ft | 3 kts | 359° |
| 2026-05-05 17:01 | 56.74868 | 60.80138 | 765 ft | 3 kts | 359° |
| 2026-05-05 17:01 | 56.74849 | 60.80138 | 765 ft | 3 kts | 359° |
| 2026-05-05 17:01 | 56.74831 | 60.80138 | 765 ft | 3 kts | 359° |
| 2026-05-05 17:01 | 56.74812 | 60.80139 | 765 ft | 3 kts | 359° |
| 2026-05-05 17:02 | 56.74793 | 60.80139 | 765 ft | 3 kts | 359° |
| 2026-05-05 17:02 | 56.74788 | 60.80139 | 765 ft | 0 kts | 359° |
| 2026-05-05 17:06 | 56.74795 | 60.80139 | 765 ft | 3 kts | 359° |
| 2026-05-05 17:06 | 56.74814 | 60.80137 | 765 ft | 3 kts | 357° |
| 2026-05-05 17:07 | 56.74849 | 60.80184 | 765 ft | 10 kts | 67° |
| 2026-05-05 17:07 | 56.74854 | 60.80338 | 766 ft | 13 kts | 89° |
| 2026-05-05 17:07 | 56.74854 | 60.80489 | 767 ft | 11 kts | 91° |
| 2026-05-05 17:07 | 56.74853 | 60.80621 | 768 ft | 10 kts | 90° |
| 2026-05-05 17:08 | 56.74853 | 60.80746 | 769 ft | 11 kts | 90° |
| 2026-05-05 17:08 | 56.74853 | 60.80898 | 770 ft | 13 kts | 90° |
| 2026-05-05 17:08 | 56.74861 | 60.81079 | 771 ft | 15 kts | 77° |
| 2026-05-05 17:08 | 56.74868 | 60.81287 | 772 ft | 18 kts | 89° |
| 2026-05-05 17:09 | 56.74867 | 60.81522 | 773 ft | 19 kts | 91° |
| 2026-05-05 17:09 | 56.74866 | 60.81779 | 775 ft | 21 kts | 98° |
| 2026-05-05 17:09 | 56.74809 | 60.82029 | 777 ft | 21 kts | 115° |
| 2026-05-05 17:09 | 56.74730 | 60.82200 | 778 ft | 15 kts | 172° |
| 2026-05-05 17:10 | 56.74650 | 60.82202 | 778 ft | 9 kts | 179° |
| 2026-05-05 17:10 | 56.74594 | 60.82202 | 778 ft | 9 kts | 180° |
| 2026-05-05 17:10 | 56.74512 | 60.82202 | 780 ft | 14 kts | 180° |
| 2026-05-05 17:10 | 56.74402 | 60.82194 | 779 ft | 17 kts | 184° |
| 2026-05-05 17:11 | 56.74310 | 60.82181 | 778 ft | 8 kts | 184° |
| 2026-05-05 17:11 | 56.74296 | 60.82180 | 778 ft | 0 kts | 184° |
| 2026-05-05 17:17 | 56.74286 | 60.82178 | 777 ft | 5 kts | 184° |
| 2026-05-05 17:17 | 56.74226 | 60.82172 | 776 ft | 12 kts | 183° |
| 2026-05-05 17:17 | 56.74114 | 60.82158 | 774 ft | 17 kts | 184° |
| 2026-05-05 17:18 | 56.74067 | 60.82051 | 772 ft | 8 kts | 271° |
| 2026-05-05 17:18 | 56.74068 | 60.82043 | 772 ft | 0 kts | 272° |
| 2026-05-05 17:19 | 56.74068 | 60.82001 | 772 ft | 11 kts | 272° |
| 2026-05-05 17:19 | 56.74088 | 60.81513 | 772 ft | 69 kts | 275° |
| 2026-05-05 17:19 | 56.74139 | 60.80261 | 761 ft | 128 kts | 274° |
| 2026-05-05 17:19 | 56.74201 | 60.78360 | 826 ft | 165 kts | 273° |
| 2026-05-05 17:20 | 56.74281 | 60.76273 | 1312 ft | 165 kts | 271° |
| 2026-05-05 17:20 | 56.74304 | 60.74180 | 1829 ft | 165 kts | 270° |
| 2026-05-05 17:20 | 56.74332 | 60.72013 | 2256 ft | 181 kts | 270° |
| 2026-05-05 17:20 | 56.74356 | 60.69624 | 2701 ft | 195 kts | 271° |
| 2026-05-05 17:21 | 56.74387 | 60.67115 | 3461 ft | 202 kts | 271° |
| 2026-05-05 17:21 | 56.74420 | 60.64485 | 3988 ft | 214 kts | 272° |
| 2026-05-05 17:21 | 56.74459 | 60.61733 | 4656 ft | 222 kts | 271° |
| 2026-05-05 17:22 | 56.74532 | 60.55834 | 5820 ft | 246 kts | 271° |
| 2026-05-05 17:22 | 56.74712 | 60.52654 | 6431 ft | 257 kts | 278° |
| 2026-05-05 17:22 | 56.74888 | 60.49378 | 7171 ft | 262 kts | 274° |
| 2026-05-05 17:22 | 56.75008 | 60.46050 | 8017 ft | 265 kts | 274° |
| 2026-05-05 17:23 | 56.75145 | 60.42665 | 8888 ft | 268 kts | 274° |
| 2026-05-05 17:23 | 56.75238 | 60.40408 | 9414 ft | 273 kts | 274° |
| 2026-05-05 17:23 | 56.75437 | 60.35701 | 10258 ft | 286 kts | 274° |
| 2026-05-05 17:23 | 56.75537 | 60.33255 | 10549 ft | 298 kts | 274° |
| 2026-05-05 17:24 | 56.75694 | 60.29400 | 10990 ft | 313 kts | 274° |
| 2026-05-05 17:24 | 56.75854 | 60.25347 | 11427 ft | 328 kts | 275° |
| 2026-05-05 17:24 | 56.76044 | 60.21111 | 11869 ft | 343 kts | 275° |
| 2026-05-05 17:24 | 56.76235 | 60.16692 | 12322 ft | 356 kts | 275° |
| 2026-05-05 17:25 | 56.76428 | 60.12117 | 12819 ft | 367 kts | 275° |
| 2026-05-05 17:25 | 56.76554 | 60.09043 | 13307 ft | 369 kts | 275° |
| 2026-05-05 17:25 | 56.76817 | 60.02748 | 14184 ft | 375 kts | 275° |
| 2026-05-05 17:25 | 56.77011 | 59.97974 | 14855 ft | 379 kts | 275° |
| 2026-05-05 17:26 | 56.77206 | 59.93159 | 15489 ft | 383 kts | 275° |
| 2026-05-05 17:26 | 56.77394 | 59.88291 | 16139 ft | 386 kts | 275° |
| 2026-05-05 17:26 | 56.77586 | 59.83388 | 16772 ft | 390 kts | 275° |
| 2026-05-05 17:26 | 56.77774 | 59.78478 | 17381 ft | 394 kts | 275° |
| 2026-05-05 17:27 | 56.77968 | 59.73471 | 17995 ft | 398 kts | 275° |
| 2026-05-05 17:27 | 56.78154 | 59.68422 | 18559 ft | 401 kts | 275° |
| 2026-05-05 17:27 | 56.78347 | 59.63326 | 19113 ft | 404 kts | 275° |
| 2026-05-05 17:27 | 56.78531 | 59.58198 | 19663 ft | 407 kts | 275° |
| 2026-05-05 17:28 | 56.78725 | 59.53032 | 20108 ft | 408 kts | 275° |
| 2026-05-05 17:28 | 56.78902 | 59.47911 | 20292 ft | 400 kts | 275° |
| 2026-05-05 17:28 | 56.79093 | 59.42940 | 20576 ft | 383 kts | 275° |
| 2026-05-05 17:28 | 56.79262 | 59.38045 | 20941 ft | 391 kts | 274° |
| 2026-05-05 17:29 | 56.79437 | 59.33028 | 21236 ft | 401 kts | 274° |
| 2026-05-05 17:29 | 56.79630 | 59.27896 | 21519 ft | 411 kts | 274° |
| 2026-05-05 17:29 | 56.79819 | 59.22676 | 22016 ft | 414 kts | 274° |
| 2026-05-05 17:29 | 56.79983 | 59.17415 | 22538 ft | 417 kts | 274° |
| 2026-05-05 17:30 | 56.80164 | 59.12170 | 23061 ft | 420 kts | 274° |
| 2026-05-05 17:30 | 56.80336 | 59.06761 | 23537 ft | 424 kts | 273° |
| 2026-05-05 17:30 | 56.80507 | 59.01441 | 23978 ft | 426 kts | 274° |
| 2026-05-05 17:30 | 56.80680 | 58.96026 | 24426 ft | 428 kts | 273° |
| 2026-05-05 17:31 | 56.80849 | 58.90588 | 24874 ft | 431 kts | 273° |
| 2026-05-05 17:31 | 56.81020 | 58.85100 | 25318 ft | 433 kts | 273° |
| 2026-05-05 17:31 | 56.81193 | 58.79604 | 25863 ft | 433 kts | 273° |
| 2026-05-05 17:31 | 56.81368 | 58.74135 | 26456 ft | 431 kts | 273° |
| 2026-05-05 17:32 | 56.81543 | 58.68685 | 27043 ft | 429 kts | 273° |
| 2026-05-05 17:32 | 56.81720 | 58.63251 | 27637 ft | 428 kts | 273° |
| 2026-05-05 17:32 | 56.81894 | 58.57819 | 28219 ft | 427 kts | 273° |
| 2026-05-05 17:32 | 56.82039 | 58.52421 | 28780 ft | 425 kts | 272° |
| 2026-05-05 17:33 | 56.82186 | 58.47095 | 29305 ft | 424 kts | 273° |
| 2026-05-05 17:33 | 56.82346 | 58.41730 | 29882 ft | 423 kts | 272° |
| 2026-05-05 17:33 | 56.82483 | 58.36373 | 30339 ft | 422 kts | 272° |
| 2026-05-05 17:33 | 56.82627 | 58.31034 | 30771 ft | 421 kts | 272° |
| 2026-05-05 17:34 | 56.82765 | 58.25699 | 31203 ft | 420 kts | 272° |
| 2026-05-05 17:34 | 56.82906 | 58.20379 | 31628 ft | 419 kts | 272° |
| 2026-05-05 17:34 | 56.83042 | 58.15072 | 32039 ft | 418 kts | 272° |
| 2026-05-05 17:34 | 56.83173 | 58.09770 | 32460 ft | 417 kts | 272° |
| 2026-05-05 17:35 | 56.83304 | 58.04491 | 32874 ft | 416 kts | 272° |
| 2026-05-05 17:35 | 56.83436 | 57.99212 | 33261 ft | 415 kts | 272° |
| 2026-05-05 17:35 | 56.83569 | 57.93956 | 33651 ft | 414 kts | 272° |
| 2026-05-05 17:35 | 56.83704 | 57.88697 | 33944 ft | 415 kts | 272° |
| 2026-05-05 17:36 | 56.83839 | 57.83431 | 34162 ft | 417 kts | 272° |
| 2026-05-05 17:36 | 56.83975 | 57.78126 | 34363 ft | 419 kts | 272° |
| 2026-05-05 17:36 | 56.84108 | 57.72795 | 34574 ft | 421 kts | 272° |
| 2026-05-05 17:36 | 56.84213 | 57.67447 | 34773 ft | 423 kts | 272° |
| 2026-05-05 17:37 | 56.84331 | 57.62059 | 34965 ft | 425 kts | 272° |
| 2026-05-05 17:37 | 56.84455 | 57.56649 | 35162 ft | 427 kts | 272° |
| 2026-05-05 17:37 | 56.84555 | 57.51280 | 35364 ft | 428 kts | 272° |
| 2026-05-05 17:37 | 56.84671 | 57.45827 | 35557 ft | 430 kts | 272° |
| 2026-05-05 17:38 | 56.84777 | 57.40362 | 35721 ft | 432 kts | 272° |
| 2026-05-05 17:38 | 56.84881 | 57.34848 | 35838 ft | 436 kts | 271° |
| 2026-05-05 17:38 | 56.84987 | 57.29272 | 35850 ft | 441 kts | 272° |
| 2026-05-05 17:39 | 56.85189 | 57.17937 | 35892 ft | 451 kts | 272° |
| 2026-05-05 17:39 | 56.85384 | 57.06371 | 35875 ft | 455 kts | 271° |
| 2026-05-05 17:40 | 56.85570 | 56.94826 | 35881 ft | 454 kts | 272° |
| 2026-05-05 17:40 | 56.85754 | 56.83271 | 35883 ft | 454 kts | 271° |
| 2026-05-05 17:41 | 56.85923 | 56.71730 | 35871 ft | 454 kts | 271° |
| 2026-05-05 17:41 | 56.86087 | 56.60189 | 35871 ft | 454 kts | 271° |
| 2026-05-05 17:42 | 56.86252 | 56.48668 | 35871 ft | 454 kts | 271° |
| 2026-05-05 17:42 | 56.86414 | 56.37190 | 35865 ft | 453 kts | 271° |
| 2026-05-05 17:43 | 56.86534 | 56.25669 | 35881 ft | 454 kts | 271° |
| 2026-05-05 17:43 | 56.86645 | 56.14116 | 35871 ft | 453 kts | 271° |
| 2026-05-05 17:44 | 56.86742 | 56.02604 | 35864 ft | 453 kts | 271° |
| 2026-05-05 17:44 | 56.86836 | 55.91162 | 35866 ft | 453 kts | 271° |
| 2026-05-05 17:45 | 56.86912 | 55.79653 | 35856 ft | 453 kts | 270° |
| 2026-05-05 17:45 | 56.86982 | 55.68153 | 35859 ft | 453 kts | 270° |
| 2026-05-05 17:46 | 56.87043 | 55.56639 | 35855 ft | 452 kts | 270° |
| 2026-05-05 17:46 | 56.87087 | 55.45138 | 35856 ft | 452 kts | 270° |
| 2026-05-05 17:47 | 56.87130 | 55.33632 | 35850 ft | 452 kts | 270° |
| 2026-05-05 17:47 | 56.87170 | 55.22120 | 35842 ft | 452 kts | 270° |
| 2026-05-05 17:48 | 56.87206 | 55.10621 | 35857 ft | 452 kts | 270° |
| 2026-05-05 17:48 | 56.87242 | 54.99131 | 35867 ft | 452 kts | 270° |
| 2026-05-05 17:49 | 56.87235 | 54.87640 | 35848 ft | 452 kts | 270° |
| 2026-05-05 17:49 | 56.87221 | 54.76226 | 35848 ft | 451 kts | 270° |
| 2026-05-05 17:50 | 56.87195 | 54.64678 | 35850 ft | 452 kts | 270° |
| 2026-05-05 17:50 | 56.87162 | 54.53206 | 35853 ft | 451 kts | 269° |
| 2026-05-05 17:51 | 56.87119 | 54.41816 | 35845 ft | 451 kts | 269° |
| 2026-05-05 17:51 | 56.87059 | 54.30362 | 35845 ft | 451 kts | 269° |
| 2026-05-05 17:52 | 56.86993 | 54.18900 | 35842 ft | 450 kts | 269° |
| 2026-05-05 17:52 | 56.86917 | 54.07457 | 35846 ft | 450 kts | 269° |
| 2026-05-05 17:53 | 56.86836 | 53.96002 | 35844 ft | 450 kts | 269° |
| 2026-05-05 17:53 | 56.86748 | 53.84567 | 35840 ft | 450 kts | 269° |
| 2026-05-05 17:54 | 56.86659 | 53.73134 | 35837 ft | 450 kts | 269° |
| 2026-05-05 17:54 | 56.86568 | 53.61720 | 35848 ft | 449 kts | 269° |
| 2026-05-05 17:55 | 56.86437 | 53.50307 | 35849 ft | 449 kts | 269° |
| 2026-05-05 17:55 | 56.86297 | 53.38900 | 35854 ft | 449 kts | 269° |
| 2026-05-05 17:56 | 56.86145 | 53.27557 | 35844 ft | 449 kts | 269° |
| 2026-05-05 17:56 | 56.85982 | 53.16155 | 35859 ft | 448 kts | 269° |
| 2026-05-05 17:57 | 56.85814 | 53.04756 | 35849 ft | 448 kts | 269° |
| 2026-05-05 17:57 | 56.85632 | 52.93387 | 35852 ft | 448 kts | 268° |
| 2026-05-05 17:58 | 56.85440 | 52.82013 | 35838 ft | 448 kts | 268° |
| 2026-05-05 17:58 | 56.85242 | 52.70643 | 35852 ft | 448 kts | 268° |
| 2026-05-05 17:59 | 56.85028 | 52.59284 | 35851 ft | 447 kts | 268° |
| 2026-05-05 17:59 | 56.84811 | 52.47937 | 35852 ft | 446 kts | 268° |
| 2026-05-05 18:00 | 56.84594 | 52.36673 | 35848 ft | 448 kts | 268° |
| 2026-05-05 18:00 | 56.84374 | 52.25229 | 35851 ft | 451 kts | 268° |
| 2026-05-05 18:01 | 56.84147 | 52.13762 | 35848 ft | 451 kts | 268° |
| 2026-05-05 18:01 | 56.83879 | 52.02321 | 35852 ft | 451 kts | 268° |
| 2026-05-05 18:02 | 56.83600 | 51.90882 | 35850 ft | 451 kts | 267° |
| 2026-05-05 18:02 | 56.83309 | 51.79444 | 35843 ft | 451 kts | 267° |
| 2026-05-05 18:03 | 56.83012 | 51.68005 | 35844 ft | 451 kts | 267° |
| 2026-05-05 18:03 | 56.82702 | 51.56576 | 35841 ft | 451 kts | 267° |
| 2026-05-05 18:04 | 56.82388 | 51.45150 | 35840 ft | 450 kts | 267° |
| 2026-05-05 18:04 | 56.82062 | 51.33810 | 35833 ft | 450 kts | 267° |
| 2026-05-05 18:05 | 56.81728 | 51.22402 | 35830 ft | 450 kts | 267° |
| 2026-05-05 18:05 | 56.81391 | 51.10990 | 35834 ft | 450 kts | 267° |
| 2026-05-05 18:06 | 56.81058 | 50.99579 | 35837 ft | 450 kts | 267° |
| 2026-05-05 18:06 | 56.80718 | 50.88180 | 35827 ft | 449 kts | 266° |
| 2026-05-05 18:07 | 56.80336 | 50.76804 | 35830 ft | 449 kts | 266° |
| 2026-05-05 18:07 | 56.79944 | 50.65442 | 35831 ft | 449 kts | 266° |
| 2026-05-05 18:08 | 56.79547 | 50.54080 | 35829 ft | 448 kts | 266° |
| 2026-05-05 18:08 | 56.79140 | 50.42734 | 35830 ft | 448 kts | 266° |
| 2026-05-05 18:09 | 56.78724 | 50.31461 | 35826 ft | 448 kts | 266° |
| 2026-05-05 18:09 | 56.78294 | 50.20135 | 35828 ft | 448 kts | 266° |
| 2026-05-05 18:10 | 56.77856 | 50.08806 | 35822 ft | 448 kts | 266° |
| 2026-05-05 18:10 | 56.77405 | 49.97482 | 35820 ft | 447 kts | 266° |
| 2026-05-05 18:11 | 56.76946 | 49.86173 | 35813 ft | 447 kts | 266° |
| 2026-05-05 18:11 | 56.76225 | 49.74919 | 35821 ft | 447 kts | 262° |
| 2026-05-05 18:12 | 56.75628 | 49.63630 | 35820 ft | 447 kts | 267° |
| 2026-05-05 18:12 | 56.75356 | 49.52313 | 35820 ft | 447 kts | 268° |
| 2026-05-05 18:13 | 56.75133 | 49.42921 | 35822 ft | 446 kts | 267° |
| 2026-05-05 18:13 | 56.74743 | 49.29789 | 35811 ft | 446 kts | 266° |
| 2026-05-05 18:14 | 56.74406 | 49.18505 | 35823 ft | 446 kts | 266° |
| 2026-05-05 18:14 | 56.74122 | 49.09052 | 35821 ft | 446 kts | 266° |
| 2026-05-05 18:15 | 56.73785 | 48.97850 | 35826 ft | 445 kts | 266° |
| 2026-05-05 18:15 | 56.73445 | 48.86585 | 35822 ft | 445 kts | 266° |
| 2026-05-05 18:16 | 56.73105 | 48.75325 | 35825 ft | 445 kts | 266° |
| 2026-05-05 18:16 | 56.72725 | 48.64073 | 35818 ft | 445 kts | 266° |
| 2026-05-05 18:17 | 56.72323 | 48.52839 | 35824 ft | 444 kts | 265° |
| 2026-05-05 18:17 | 56.71865 | 48.41611 | 35819 ft | 444 kts | 265° |
| 2026-05-05 18:18 | 56.71457 | 48.30468 | 35821 ft | 444 kts | 266° |
| 2026-05-05 18:18 | 56.71038 | 48.19251 | 35821 ft | 444 kts | 266° |
| 2026-05-05 18:19 | 56.70605 | 48.08040 | 35822 ft | 444 kts | 266° |
| 2026-05-05 18:19 | 56.70172 | 47.96832 | 35823 ft | 444 kts | 265° |
| 2026-05-05 18:20 | 56.69722 | 47.85622 | 35826 ft | 444 kts | 265° |
| 2026-05-05 18:20 | 56.69266 | 47.74412 | 35822 ft | 443 kts | 265° |
| 2026-05-05 18:21 | 56.68809 | 47.63232 | 35823 ft | 444 kts | 265° |
| 2026-05-05 18:21 | 56.68352 | 47.52046 | 35815 ft | 443 kts | 265° |
| 2026-05-05 18:22 | 56.67894 | 47.40867 | 35819 ft | 443 kts | 265° |
| 2026-05-05 18:22 | 56.67397 | 47.29690 | 35819 ft | 443 kts | 264° |
| 2026-05-05 18:22 | 56.66769 | 47.24307 | 35840 ft | 442 kts | 252° |
| 2026-05-05 18:23 | 56.65629 | 47.19116 | 35828 ft | 444 kts | 247° |
| 2026-05-05 18:23 | 56.63215 | 47.08798 | 35824 ft | 444 kts | 249° |
| 2026-05-05 18:24 | 56.61084 | 46.98281 | 35827 ft | 443 kts | 251° |
| 2026-05-05 18:24 | 56.58979 | 46.87740 | 35826 ft | 443 kts | 250° |
| 2026-05-05 18:25 | 56.56841 | 46.77246 | 35826 ft | 443 kts | 250° |
| 2026-05-05 18:25 | 56.54695 | 46.66766 | 35823 ft | 443 kts | 250° |
| 2026-05-05 18:26 | 56.52544 | 46.56269 | 35823 ft | 443 kts | 250° |
| 2026-05-05 18:26 | 56.50390 | 46.45890 | 35823 ft | 443 kts | 250° |
| 2026-05-05 18:27 | 56.48198 | 46.35381 | 35829 ft | 443 kts | 250° |
| 2026-05-05 18:27 | 56.46031 | 46.24996 | 35825 ft | 443 kts | 250° |
| 2026-05-05 18:28 | 56.42762 | 46.09349 | 35826 ft | 443 kts | 250° |
| 2026-05-05 18:28 | 56.40579 | 45.98928 | 35828 ft | 443 kts | 250° |
| 2026-05-05 18:29 | 56.38372 | 45.88526 | 35823 ft | 444 kts | 250° |
| 2026-05-05 18:29 | 56.36156 | 45.78143 | 35821 ft | 444 kts | 250° |
| 2026-05-05 18:30 | 56.33933 | 45.67769 | 35815 ft | 444 kts | 249° |
| 2026-05-05 18:30 | 56.31693 | 45.57397 | 35822 ft | 444 kts | 249° |
| 2026-05-05 18:31 | 56.29449 | 45.47044 | 35823 ft | 444 kts | 249° |
| 2026-05-05 18:31 | 56.27210 | 45.36761 | 35828 ft | 444 kts | 249° |
| 2026-05-05 18:32 | 56.24903 | 45.26458 | 35824 ft | 444 kts | 249° |
| 2026-05-05 18:32 | 56.22601 | 45.16139 | 35829 ft | 444 kts | 249° |
| 2026-05-05 18:33 | 56.20324 | 45.05826 | 35829 ft | 444 kts | 249° |
| 2026-05-05 18:33 | 56.18038 | 44.95512 | 35822 ft | 444 kts | 249° |
| 2026-05-05 18:34 | 56.15746 | 44.85218 | 35830 ft | 444 kts | 249° |
| 2026-05-05 18:34 | 56.13452 | 44.74987 | 35826 ft | 445 kts | 249° |
| 2026-05-05 18:35 | 56.11156 | 44.64617 | 35821 ft | 444 kts | 253° |
| 2026-05-05 18:35 | 56.10559 | 44.59279 | 35835 ft | 443 kts | 264° |
| 2026-05-05 18:35 | 56.10358 | 44.53767 | 35834 ft | 444 kts | 267° |
| 2026-05-05 18:36 | 56.09984 | 44.42712 | 35830 ft | 445 kts | 264° |
| 2026-05-05 18:36 | 56.09331 | 44.31700 | 35831 ft | 444 kts | 263° |
| 2026-05-05 18:37 | 56.08660 | 44.20680 | 35828 ft | 444 kts | 263° |
| 2026-05-05 18:37 | 56.07972 | 44.09682 | 35828 ft | 444 kts | 263° |
| 2026-05-05 18:38 | 56.07278 | 43.98672 | 35828 ft | 445 kts | 263° |
| 2026-05-05 18:38 | 56.06575 | 43.87749 | 35833 ft | 445 kts | 263° |
| 2026-05-05 18:39 | 56.05862 | 43.76767 | 35826 ft | 445 kts | 263° |
| 2026-05-05 18:39 | 56.05139 | 43.65771 | 35830 ft | 445 kts | 263° |
| 2026-05-05 18:40 | 56.04406 | 43.54796 | 35830 ft | 445 kts | 263° |
| 2026-05-05 18:40 | 56.03658 | 43.43807 | 35835 ft | 445 kts | 263° |
| 2026-05-05 18:41 | 56.02934 | 43.32823 | 35832 ft | 445 kts | 266° |
| 2026-05-05 18:41 | 56.02999 | 43.21828 | 35838 ft | 445 kts | 272° |
| 2026-05-05 18:42 | 56.03299 | 43.10757 | 35830 ft | 445 kts | 271° |
| 2026-05-05 18:42 | 56.03470 | 42.99682 | 35831 ft | 445 kts | 270° |
| 2026-05-05 18:43 | 56.03638 | 42.88598 | 35834 ft | 445 kts | 271° |
| 2026-05-05 18:43 | 56.03796 | 42.77537 | 35825 ft | 445 kts | 270° |
| 2026-05-05 18:44 | 56.03937 | 42.66474 | 35835 ft | 445 kts | 270° |
| 2026-05-05 18:44 | 56.04070 | 42.55471 | 35830 ft | 445 kts | 270° |
| 2026-05-05 18:45 | 56.03896 | 42.49975 | 35835 ft | 443 kts | 257° |
| 2026-05-05 18:45 | 56.02824 | 42.44832 | 35859 ft | 443 kts | 244° |
| 2026-05-05 18:45 | 55.99956 | 42.35036 | 35839 ft | 445 kts | 245° |
| 2026-05-05 18:46 | 55.97518 | 42.24879 | 35830 ft | 445 kts | 249° |
| 2026-05-05 18:46 | 55.95219 | 42.14613 | 35829 ft | 445 kts | 249° |
| 2026-05-05 18:47 | 55.92870 | 42.04379 | 35833 ft | 445 kts | 248° |
| 2026-05-05 18:47 | 55.90507 | 41.94175 | 35830 ft | 446 kts | 248° |
| 2026-05-05 18:48 | 55.88131 | 41.83956 | 35837 ft | 446 kts | 248° |
| 2026-05-05 18:48 | 55.85321 | 41.74163 | 35849 ft | 447 kts | 230° |
| 2026-05-05 18:49 | 55.80683 | 41.66668 | 35859 ft | 452 kts | 224° |
| 2026-05-05 18:49 | 55.76148 | 41.58954 | 35840 ft | 451 kts | 228° |
| 2026-05-05 18:50 | 55.72550 | 41.52241 | 35830 ft | 451 kts | 229° |
| 2026-05-05 18:50 | 55.67475 | 41.42937 | 35836 ft | 452 kts | 228° |
| 2026-05-05 18:51 | 55.63091 | 41.34957 | 35846 ft | 452 kts | 228° |
| 2026-05-05 18:51 | 55.58730 | 41.26934 | 35839 ft | 451 kts | 233° |
| 2026-05-05 18:52 | 55.57166 | 41.22208 | 35847 ft | 445 kts | 252° |
| 2026-05-05 18:52 | 55.56640 | 41.16862 | 35867 ft | 444 kts | 271° |
| 2026-05-05 18:52 | 55.57403 | 41.05983 | 35891 ft | 448 kts | 274° |
| 2026-05-05 18:53 | 55.57511 | 40.94999 | 35859 ft | 447 kts | 267° |
| 2026-05-05 18:53 | 55.57219 | 40.84015 | 35846 ft | 447 kts | 267° |
| 2026-05-05 18:54 | 55.56975 | 40.73031 | 35845 ft | 447 kts | 268° |
| 2026-05-05 18:54 | 55.56753 | 40.62042 | 35844 ft | 447 kts | 268° |
| 2026-05-05 18:55 | 55.56529 | 40.51055 | 35845 ft | 447 kts | 267° |
| 2026-05-05 18:55 | 55.56227 | 40.40086 | 35842 ft | 447 kts | 266° |
| 2026-05-05 18:56 | 55.55885 | 40.29118 | 35717 ft | 445 kts | 266° |
| 2026-05-05 18:56 | 55.55729 | 40.23679 | 35361 ft | 443 kts | 267° |
| 2026-05-05 18:56 | 55.55577 | 40.18306 | 34799 ft | 443 kts | 266° |
| 2026-05-05 18:57 | 55.55415 | 40.12882 | 34184 ft | 441 kts | 266° |
| 2026-05-05 18:57 | 55.55253 | 40.07498 | 33539 ft | 438 kts | 266° |
| 2026-05-05 18:57 | 55.55098 | 40.02142 | 32849 ft | 436 kts | 267° |
| 2026-05-05 18:57 | 55.55077 | 39.96786 | 32052 ft | 437 kts | 272° |
| 2026-05-05 18:58 | 55.55343 | 39.91429 | 31264 ft | 438 kts | 276° |
| 2026-05-05 18:58 | 55.55706 | 39.86074 | 30501 ft | 440 kts | 276° |
| 2026-05-05 18:58 | 55.56055 | 39.80684 | 29747 ft | 442 kts | 276° |
| 2026-05-05 18:58 | 55.56371 | 39.75274 | 28890 ft | 444 kts | 275° |
| 2026-05-05 18:59 | 55.56662 | 39.69839 | 28058 ft | 445 kts | 275° |
| 2026-05-05 18:59 | 55.56936 | 39.64375 | 27257 ft | 447 kts | 275° |
| 2026-05-05 18:59 | 55.57227 | 39.58890 | 26479 ft | 450 kts | 275° |
| 2026-05-05 18:59 | 55.57503 | 39.53373 | 25725 ft | 452 kts | 275° |
| 2026-05-05 19:00 | 55.57819 | 39.47849 | 25139 ft | 451 kts | 276° |
| 2026-05-05 19:00 | 55.58172 | 39.42365 | 24629 ft | 447 kts | 276° |
| 2026-05-05 19:00 | 55.58534 | 39.36935 | 24134 ft | 443 kts | 276° |
| 2026-05-05 19:00 | 55.58897 | 39.31539 | 23637 ft | 440 kts | 276° |
| 2026-05-05 19:01 | 55.59229 | 39.26252 | 23104 ft | 437 kts | 276° |
| 2026-05-05 19:01 | 55.59573 | 39.20858 | 22522 ft | 434 kts | 276° |
| 2026-05-05 19:01 | 55.59900 | 39.15589 | 21965 ft | 427 kts | 276° |
| 2026-05-05 19:01 | 55.60222 | 39.10518 | 21415 ft | 415 kts | 275° |
| 2026-05-05 19:02 | 55.60525 | 39.05498 | 20876 ft | 405 kts | 276° |
| 2026-05-05 19:02 | 55.60829 | 39.00608 | 20346 ft | 395 kts | 275° |
| 2026-05-05 19:02 | 55.61117 | 38.95830 | 19823 ft | 386 kts | 276° |
| 2026-05-05 19:02 | 55.61398 | 38.91161 | 19304 ft | 378 kts | 275° |
| 2026-05-05 19:03 | 55.61646 | 38.86582 | 18897 ft | 368 kts | 274° |
| 2026-05-05 19:03 | 55.61883 | 38.82138 | 18537 ft | 358 kts | 275° |
| 2026-05-05 19:03 | 55.62112 | 38.77800 | 18190 ft | 349 kts | 274° |
| 2026-05-05 19:03 | 55.62335 | 38.73583 | 17797 ft | 341 kts | 275° |
| 2026-05-05 19:04 | 55.62481 | 38.70834 | 17532 ft | 335 kts | 275° |
| 2026-05-05 19:04 | 55.62698 | 38.66770 | 17133 ft | 328 kts | 275° |
| 2026-05-05 19:04 | 55.62913 | 38.62793 | 16742 ft | 321 kts | 275° |
| 2026-05-05 19:04 | 55.63125 | 38.58900 | 16353 ft | 315 kts | 275° |
| 2026-05-05 19:05 | 55.63332 | 38.55083 | 15973 ft | 309 kts | 275° |
| 2026-05-05 19:05 | 55.63522 | 38.51333 | 15603 ft | 303 kts | 274° |
| 2026-05-05 19:05 | 55.63690 | 38.47643 | 15227 ft | 298 kts | 274° |
| 2026-05-05 19:05 | 55.63850 | 38.43990 | 14856 ft | 297 kts | 274° |
| 2026-05-05 19:06 | 55.64009 | 38.40336 | 14494 ft | 298 kts | 274° |
| 2026-05-05 19:06 | 55.64168 | 38.36689 | 14147 ft | 298 kts | 274° |
| 2026-05-05 19:06 | 55.64327 | 38.33067 | 14014 ft | 289 kts | 274° |
| 2026-05-05 19:06 | 55.64482 | 38.29511 | 13589 ft | 292 kts | 274° |
| 2026-05-05 19:07 | 55.64640 | 38.25888 | 13077 ft | 296 kts | 274° |
| 2026-05-05 19:07 | 55.64807 | 38.22218 | 12431 ft | 303 kts | 274° |
| 2026-05-05 19:07 | 55.64986 | 38.18445 | 11673 ft | 312 kts | 273° |
| 2026-05-05 19:07 | 55.65182 | 38.14572 | 11048 ft | 317 kts | 274° |
| 2026-05-05 19:08 | 55.65387 | 38.10717 | 10747 ft | 311 kts | 273° |
| 2026-05-05 19:08 | 55.65581 | 38.07023 | 10626 ft | 299 kts | 270° |
| 2026-05-05 19:08 | 55.65407 | 38.03425 | 10523 ft | 287 kts | 261° |
| 2026-05-05 19:08 | 55.65173 | 37.99967 | 10396 ft | 279 kts | 264° |
| 2026-05-05 19:09 | 55.65066 | 37.96574 | 10163 ft | 272 kts | 266° |
| 2026-05-05 19:09 | 55.65048 | 37.93259 | 9789 ft | 267 kts | 266° |
| 2026-05-05 19:09 | 55.64573 | 37.90141 | 9291 ft | 264 kts | 242° |
| 2026-05-05 19:09 | 55.63561 | 37.87439 | 8767 ft | 264 kts | 234° |
| 2026-05-05 19:10 | 55.62457 | 37.84836 | 8282 ft | 265 kts | 234° |
| 2026-05-05 19:10 | 55.61339 | 37.82244 | 7782 ft | 265 kts | 233° |
| 2026-05-05 19:10 | 55.60208 | 37.79657 | 7315 ft | 265 kts | 233° |
| 2026-05-05 19:10 | 55.59081 | 37.77073 | 6834 ft | 266 kts | 233° |
| 2026-05-05 19:11 | 55.57947 | 37.74531 | 6360 ft | 259 kts | 228° |
| 2026-05-05 19:11 | 55.56449 | 37.72954 | 5835 ft | 252 kts | 194° |
| 2026-05-05 19:11 | 55.54719 | 37.73187 | 5185 ft | 254 kts | 163° |
| 2026-05-05 19:11 | 55.53121 | 37.74526 | 4455 ft | 256 kts | 153° |
| 2026-05-05 19:12 | 55.51584 | 37.76115 | 3749 ft | 255 kts | 154° |
| 2026-05-05 19:12 | 55.50052 | 37.77556 | 3322 ft | 243 kts | 151° |
| 2026-05-05 19:12 | 55.48697 | 37.79236 | 2988 ft | 235 kts | 144° |
| 2026-05-05 19:12 | 55.47393 | 37.80878 | 2527 ft | 230 kts | 148° |
| 2026-05-05 19:13 | 55.46060 | 37.82422 | 2096 ft | 226 kts | 144° |
| 2026-05-05 19:13 | 55.44794 | 37.83973 | 1635 ft | 218 kts | 147° |
| 2026-05-05 19:13 | 55.43567 | 37.85461 | 1123 ft | 210 kts | 145° |
| 2026-05-05 19:13 | 55.42384 | 37.86878 | 716 ft | 199 kts | 145° |
| 2026-05-05 19:14 | 55.41301 | 37.88188 | 590 ft | 175 kts | 146° |
| 2026-05-05 19:14 | 55.40618 | 37.89004 | 573 ft | 62 kts | 144° |
| 2026-05-05 19:14 | 55.40396 | 37.89482 | 570 ft | 22 kts | 114° |
| 2026-05-05 19:14 | 55.40470 | 37.89556 | 569 ft | 15 kts | 325° |
| 2026-05-05 19:15 | 55.40552 | 37.89455 | 570 ft | 14 kts | 325° |
| 2026-05-05 19:15 | 55.40643 | 37.89360 | 570 ft | 15 kts | 353° |
| 2026-05-05 19:15 | 55.40714 | 37.89464 | 573 ft | 14 kts | 55° |
| 2026-05-05 19:15 | 55.40784 | 37.89592 | 569 ft | 12 kts | 0° |
| 2026-05-05 19:16 | 55.40872 | 37.89568 | 577 ft | 14 kts | 32° |
| 2026-05-05 19:16 | 55.40944 | 37.89741 | 573 ft | 21 kts | 56° |
| 2026-05-05 19:16 | 55.41034 | 37.89974 | 568 ft | 24 kts | 56° |
| 2026-05-05 19:16 | 55.41114 | 37.90169 | 567 ft | 19 kts | 57° |
| 2026-05-05 19:17 | 55.41170 | 37.90303 | 568 ft | 5 kts | 15° |
| 2026-05-05 19:17 | 55.41189 | 37.90285 | 566 ft | 3 kts | 312° |
| 2026-05-05 19:17 | 55.41203 | 37.90222 | 570 ft | 6 kts | 264° |
| 2026-05-05 19:17 | 55.41182 | 37.90168 | 570 ft | 0 kts | 230° |